Time;durP1;ratioP1;P1;durP2;ratioP2;P2;SDS_P1;SDS_P2;PMS_P1;PMS_P2;Temp;Humidity;BMP_temperature;BMP_pressure;BME280_temperature;BME280_humidity;BME280_pressure;Samples;Min_cycle;Max_cycle;Signal;HPM_P1;HPM_P2
2023/08/20 00:01:50;;;;;;;5.50;5.00;;;23.70;99.90;;;;;;4953207;28;20934;-74
2023/08/20 00:04:17;;;;;;;6.53;5.90;;;23.70;99.90;;;;;;4970241;28;20718;-75
2023/08/20 00:06:46;;;;;;;5.67;5.17;;;23.60;99.90;;;;;;4974402;28;20591;-76
2023/08/20 00:09:11;;;;;;;6.27;5.67;;;23.60;99.90;;;;;;4955304;28;20600;-75
2023/08/20 00:11:37;;;;;;;5.63;5.13;;;23.60;99.90;;;;;;4954766;28;21152;-75
2023/08/20 00:14:03;;;;;;;7.50;4.87;;;23.60;99.90;;;;;;4962376;28;20251;-75
2023/08/20 00:16:29;;;;;;;5.67;5.17;;;23.60;99.90;;;;;;4961662;28;20180;-75
2023/08/20 00:18:55;;;;;;;5.33;4.20;;;23.60;99.90;;;;;;4983566;28;20174;-75
2023/08/20 00:21:21;;;;;;;7.10;6.07;;;23.70;99.90;;;;;;4964159;28;20184;-75
2023/08/20 00:23:47;;;;;;;6.20;5.23;;;23.70;99.90;;;;;;4952850;29;21232;-75
2023/08/20 00:26:12;;;;;;;5.43;4.93;;;23.70;99.90;;;;;;4962999;28;20714;-76
2023/08/20 00:28:38;;;;;;;6.50;5.50;;;23.70;99.90;;;;;;4963088;28;20591;-76
2023/08/20 00:31:04;;;;;;;5.87;5.33;;;23.70;99.90;;;;;;4963770;28;20589;-75
2023/08/20 00:33:31;;;;;;;5.60;5.10;;;23.70;99.90;;;;;;4971893;28;20223;-76
2023/08/20 00:35:58;;;;;;;5.20;4.80;;;23.80;99.90;;;;;;4983316;23;20227;-75
2023/08/20 00:38:23;;;;;;;5.43;4.80;;;23.80;99.90;;;;;;4944515;29;20608;-75
2023/08/20 00:40:49;;;;;;;7.40;5.93;;;23.90;99.90;;;;;;4935593;29;20168;-75
2023/08/20 00:43:15;;;;;;;5.60;5.10;;;23.90;99.90;;;;;;4938691;29;20243;-75
2023/08/20 00:45:42;;;;;;;5.50;5.07;;;23.90;99.90;;;;;;4953003;28;20203;-75
2023/08/20 00:48:08;;;;;;;5.43;4.93;;;23.90;99.90;;;;;;4944731;29;20248;-75
2023/08/20 00:50:34;;;;;;;6.20;5.60;;;23.90;99.90;;;;;;4953213;28;20683;-75
2023/08/20 00:53:02;;;;;;;6.10;5.50;;;23.90;99.90;;;;;;4951876;29;20650;-75
2023/08/20 00:55:28;;;;;;;6.07;5.47;;;23.90;99.90;;;;;;4920089;29;21578;-75
2023/08/20 00:57:54;;;;;;;6.77;6.13;;;23.80;99.90;;;;;;4945107;29;20704;-76
2023/08/20 01:00:23;;;;;;;6.77;6.07;;;23.80;99.90;;;;;;4951275;29;20596;-76
2023/08/20 01:02:48;;;;;;;6.23;5.60;;;23.70;99.90;;;;;;4935632;29;20599;-76
2023/08/20 01:05:16;;;;;;;6.17;5.30;;;23.70;99.90;;;;;;4943137;29;21009;-76
2023/08/20 01:07:57;;;;;;;9.93;6.63;;;23.70;99.90;;;;;;4945656;29;20598;-75
2023/08/20 01:10:45;;;;;;;6.00;5.50;;;23.60;99.90;;;;;;4951329;29;20611;-75
2023/08/20 01:13:11;;;;;;;6.43;5.70;;;23.60;99.90;;;;;;4951518;29;20595;-75
2023/08/20 01:15:37;;;;;;;6.13;5.53;;;23.60;99.90;;;;;;4951808;29;20614;-76
2023/08/20 01:18:03;;;;;;;6.77;6.00;;;23.50;99.90;;;;;;4933396;29;20597;-76
2023/08/20 01:20:35;;;;;;;6.30;5.70;;;23.50;99.90;;;;;;4908706;29;20654;-76
2023/08/20 01:23:24;;;;;;;5.43;5.00;;;23.40;99.90;;;;;;4923775;29;20621;-76
2023/08/20 01:26:15;;;;;;;6.27;5.20;;;23.40;99.90;;;;;;4924637;29;20600;-76
2023/08/20 01:28:42;;;;;;;6.37;5.77;;;23.30;99.90;;;;;;4910427;29;20695;-75
2023/08/20 01:31:11;;;;;;;6.93;5.40;;;23.30;99.90;;;;;;4955127;29;20958;-75
2023/08/20 01:33:38;;;;;;;6.87;6.27;;;23.30;99.90;;;;;;4951574;29;20950;-75
2023/08/20 01:36:09;;;;;;;6.27;5.77;;;23.20;99.90;;;;;;4916227;29;20716;-75
2023/08/20 01:38:36;;;;;;;7.03;6.03;;;23.20;99.90;;;;;;4924061;29;21224;-75
2023/08/20 01:41:03;;;;;;;7.23;5.63;;;23.20;99.90;;;;;;4956374;28;21122;-75
2023/08/20 01:43:29;;;;;;;19.60;17.80;;;23.20;99.90;;;;;;4955031;29;20627;-75
2023/08/20 01:45:55;;;;;;;24.83;22.53;;;23.10;99.90;;;;;;4971172;28;20631;-75
2023/08/20 01:48:20;;;;;;;22.77;20.47;;;23.10;99.90;;;;;;4956052;28;20169;-75
2023/08/20 01:50:46;;;;;;;19.07;17.30;;;23.10;99.90;;;;;;4966430;28;20655;-75
2023/08/20 01:53:12;;;;;;;13.43;12.13;;;23.10;99.90;;;;;;4949328;29;20627;-75
2023/08/20 01:55:38;;;;;;;11.07;9.97;;;23.10;99.90;;;;;;4943224;29;20181;-75
2023/08/20 01:58:04;;;;;;;9.90;8.90;;;23.10;99.90;;;;;;4943581;29;20580;-75
2023/08/20 02:00:30;;;;;;;8.77;7.97;;;23.10;99.90;;;;;;4943699;29;20228;-75
2023/08/20 02:02:57;;;;;;;8.63;7.73;;;23.00;99.90;;;;;;4941879;29;20580;-75
2023/08/20 02:05:23;;;;;;;9.60;7.27;;;23.00;99.90;;;;;;4946901;29;20635;-75
2023/08/20 02:07:49;;;;;;;8.07;7.27;;;23.00;99.90;;;;;;4951090;29;20561;-75
2023/08/20 02:10:14;;;;;;;7.47;6.63;;;23.00;99.90;;;;;;4944980;29;20176;-75
2023/08/20 02:12:41;;;;;;;7.80;6.97;;;23.10;99.90;;;;;;4954560;29;20200;-75
2023/08/20 02:15:07;;;;;;;7.63;6.30;;;23.00;99.90;;;;;;4954740;29;20191;-75
2023/08/20 02:17:35;;;;;;;6.90;6.20;;;23.10;99.90;;;;;;4954483;29;20648;-75
2023/08/20 02:20:03;;;;;;;11.50;6.63;;;23.10;99.90;;;;;;4947314;29;20657;-75
2023/08/20 02:22:29;;;;;;;6.07;5.47;;;23.10;99.90;;;;;;4946891;29;21172;-75
2023/08/20 02:24:55;;;;;;;6.37;5.80;;;23.10;99.90;;;;;;4936005;29;20639;-75
2023/08/20 02:27:21;;;;;;;8.13;6.77;;;23.10;99.90;;;;;;4932113;29;20228;-75
2023/08/20 02:29:47;;;;;;;6.43;5.70;;;23.10;99.90;;;;;;4954308;29;20580;-75
2023/08/20 02:32:14;;;;;;;7.27;6.63;;;23.20;99.90;;;;;;4953945;29;20530;-75
2023/08/20 02:34:40;;;;;;;8.63;7.53;;;23.10;99.90;;;;;;4927223;29;20660;-74
2023/08/20 02:37:06;;;;;;;9.47;8.57;;;23.20;99.90;;;;;;4942897;29;20213;-75
2023/08/20 02:39:32;;;;;;;9.93;7.77;;;23.20;99.90;;;;;;4954104;28;20196;-75
2023/08/20 02:41:57;;;;;;;7.50;6.80;;;23.20;99.90;;;;;;4953920;29;20592;-75
2023/08/20 02:44:26;;;;;;;7.00;6.30;;;23.20;99.90;;;;;;4939389;29;20670;-75
2023/08/20 02:46:53;;;;;;;8.80;7.43;;;23.20;99.90;;;;;;4951680;29;20732;-75
2023/08/20 02:49:19;;;;;;;7.50;6.80;;;23.20;99.90;;;;;;4944040;29;21058;-75
2023/08/20 02:51:44;;;;;;;6.67;6.07;;;23.10;99.90;;;;;;4950123;29;20267;-75
2023/08/20 02:54:10;;;;;;;7.97;6.60;;;23.10;99.90;;;;;;4943012;29;20181;-75
2023/08/20 02:56:36;;;;;;;6.23;5.63;;;23.10;99.90;;;;;;4939390;29;20192;-75
2023/08/20 02:59:02;;;;;;;7.10;6.40;;;23.10;99.90;;;;;;4953934;29;20587;-75
2023/08/20 03:01:28;;;;;;;7.30;6.40;;;23.10;99.90;;;;;;4954150;29;20187;-75
2023/08/20 03:03:55;;;;;;;7.97;7.27;;;23.10;99.90;;;;;;4956585;29;20253;-75
2023/08/20 03:06:21;;;;;;;8.60;7.73;;;23.10;99.90;;;;;;4957286;29;20615;-75
2023/08/20 03:08:46;;;;;;;7.30;6.60;;;23.10;99.90;;;;;;4942066;29;20267;-75
2023/08/20 03:11:12;;;;;;;8.03;6.80;;;23.10;99.90;;;;;;4949525;28;20169;-76
2023/08/20 03:13:38;;;;;;;8.17;7.40;;;23.10;99.90;;;;;;4956303;29;20380;-75
2023/08/20 03:16:04;;;;;;;8.23;7.43;;;23.10;99.90;;;;;;4955716;29;20197;-75
2023/08/20 03:18:29;;;;;;;8.83;7.23;;;23.10;99.90;;;;;;4947500;29;20651;-75
2023/08/20 03:20:56;;;;;;;8.40;6.73;;;23.10;99.90;;;;;;4955390;29;20204;-75
2023/08/20 03:23:23;;;;;;;9.13;8.30;;;23.10;99.90;;;;;;4948530;29;20239;-75
2023/08/20 03:25:48;;;;;;;12.43;8.17;;;23.10;99.90;;;;;;4953515;29;20595;-75
2023/08/20 03:28:14;;;;;;;9.57;8.60;;;23.10;99.90;;;;;;4951056;29;21460;-75
2023/08/20 03:30:40;;;;;;;9.27;8.37;;;23.10;99.90;;;;;;4910655;29;20177;-75
2023/08/20 03:33:06;;;;;;;9.30;8.00;;;23.00;99.90;;;;;;4917270;29;20592;-75
2023/08/20 03:35:34;;;;;;;9.70;8.20;;;23.00;99.90;;;;;;4953130;28;20551;-75
2023/08/20 03:38:00;;;;;;;9.20;7.93;;;23.00;99.90;;;;;;4953028;29;20627;-75
2023/08/20 03:40:28;;;;;;;10.10;8.17;;;23.00;99.90;;;;;;4912599;29;20185;-75
2023/08/20 03:42:53;;;;;;;10.13;8.90;;;23.00;99.90;;;;;;4948119;29;20596;-75
2023/08/20 03:45:19;;;;;;;9.50;8.27;;;23.00;99.90;;;;;;4936903;29;20615;-75
2023/08/20 03:47:46;;;;;;;9.07;8.17;;;22.90;99.90;;;;;;4948578;29;20287;-75
2023/08/20 03:50:12;;;;;;;7.97;7.17;;;22.90;99.90;;;;;;4951812;28;20538;-75
2023/08/20 03:52:39;;;;;;;7.50;6.57;;;22.90;99.90;;;;;;4949672;29;20651;-75
2023/08/20 03:55:05;;;;;;;9.00;8.10;;;22.90;99.90;;;;;;4949453;29;21121;-75
2023/08/20 03:57:32;;;;;;;10.40;7.90;;;22.90;99.90;;;;;;4952503;29;20619;-75
2023/08/20 03:59:58;;;;;;;10.27;9.13;;;22.80;99.90;;;;;;4953835;28;20951;-75
2023/08/20 04:02:24;;;;;;;10.63;9.47;;;22.80;99.90;;;;;;4952630;29;20180;-75
2023/08/20 04:04:49;;;;;;;10.90;9.10;;;22.80;99.90;;;;;;4945995;29;20208;-75
2023/08/20 04:07:15;;;;;;;9.13;8.03;;;22.80;99.90;;;;;;4953873;28;20291;-75
2023/08/20 04:09:42;;;;;;;10.40;9.30;;;22.80;99.90;;;;;;4953528;28;20177;-75
2023/08/20 04:12:08;;;;;;;11.50;9.97;;;22.70;99.90;;;;;;4952581;29;20173;-75
2023/08/20 04:14:36;;;;;;;10.97;9.83;;;22.70;99.90;;;;;;4944921;29;20687;-75
2023/08/20 04:17:02;;;;;;;12.13;9.60;;;22.70;99.90;;;;;;4913953;29;20616;-75
2023/08/20 04:19:28;;;;;;;11.70;10.50;;;22.70;99.90;;;;;;4945041;29;20614;-75
2023/08/20 04:21:53;;;;;;;10.60;9.50;;;22.70;99.90;;;;;;4944070;29;20682;-75
2023/08/20 04:24:19;;;;;;;12.10;10.67;;;22.70;99.90;;;;;;4950675;29;20212;-75
2023/08/20 04:26:45;;;;;;;13.40;9.60;;;22.70;99.90;;;;;;4933124;29;20203;-75
2023/08/20 04:29:13;;;;;;;12.03;10.83;;;22.70;99.90;;;;;;4948070;29;20598;-75
2023/08/20 04:31:39;;;;;;;11.00;9.90;;;22.70;99.90;;;;;;4952000;29;20671;-75
2023/08/20 04:34:08;;;;;;;9.40;8.57;;;22.70;99.90;;;;;;4952337;29;20611;-75
2023/08/20 04:36:39;;;;;;;9.63;8.73;;;22.70;99.90;;;;;;4949273;29;20632;-75
2023/08/20 04:39:05;;;;;;;13.93;9.80;;;22.70;99.90;;;;;;4947352;29;20655;-75
2023/08/20 04:41:33;;;;;;;11.37;10.27;;;22.70;99.90;;;;;;4951932;29;20195;-75
2023/08/20 04:43:59;;;;;;;11.20;10.07;;;22.70;99.90;;;;;;4952034;29;20636;-75
2023/08/20 04:46:26;;;;;;;11.40;10.13;;;22.60;99.90;;;;;;4951896;29;20204;-75
2023/08/20 04:48:52;;;;;;;10.37;9.23;;;22.70;99.90;;;;;;4951697;29;20683;-75
2023/08/20 04:51:18;;;;;;;10.03;9.03;;;22.60;99.90;;;;;;4952217;29;20592;-75
2023/08/20 04:53:44;;;;;;;11.10;9.57;;;22.60;99.90;;;;;;4949559;29;20925;-75
2023/08/20 04:56:10;;;;;;;11.93;10.83;;;22.60;99.90;;;;;;4935779;29;20615;-74
2023/08/20 04:58:36;;;;;;;12.07;9.43;;;22.60;99.90;;;;;;4951455;29;20182;-75
2023/08/20 05:01:02;;;;;;;9.90;8.90;;;22.60;99.90;;;;;;4951652;28;20679;-75
2023/08/20 05:03:29;;;;;;;10.47;8.90;;;22.60;99.90;;;;;;4912267;29;20188;-75
2023/08/20 05:05:55;;;;;;;10.73;9.10;;;22.60;99.90;;;;;;4935913;29;20591;-75
2023/08/20 05:08:21;;;;;;;9.90;8.07;;;22.60;99.90;;;;;;4951454;29;20180;-75
2023/08/20 05:10:49;;;;;;;12.47;9.83;;;22.60;99.90;;;;;;4951649;29;20635;-75
2023/08/20 05:13:14;;;;;;;10.47;9.47;;;22.60;99.90;;;;;;4935612;29;20176;-75
2023/08/20 05:15:40;;;;;;;10.53;8.90;;;22.60;99.90;;;;;;4943340;29;20614;-75
2023/08/20 05:18:06;;;;;;;11.80;9.90;;;22.60;99.90;;;;;;4952617;28;20183;-75
2023/08/20 05:20:32;;;;;;;14.53;9.77;;;22.70;99.90;;;;;;4952403;28;20212;-75
2023/08/20 05:22:57;;;;;;;13.60;10.10;;;22.70;99.90;;;;;;4951450;29;20219;-74
2023/08/20 05:25:25;;;;;;;11.37;10.17;;;22.70;99.90;;;;;;4952465;29;20208;-74
2023/08/20 05:27:51;;;;;;;10.63;8.90;;;22.80;99.90;;;;;;4948341;28;21035;-75
2023/08/20 05:30:16;;;;;;;9.93;8.63;;;22.90;99.90;;;;;;4951014;29;20646;-75
2023/08/20 05:32:42;;;;;;;10.10;9.10;;;23.00;99.90;;;;;;4951339;29;20199;-75
2023/08/20 05:35:08;;;;;;;10.10;9.07;;;23.10;99.90;;;;;;4951533;29;20595;-75
2023/08/20 05:37:35;;;;;;;9.23;8.30;;;23.20;99.90;;;;;;4927374;29;20647;-75
2023/08/20 05:40:02;;;;;;;10.40;9.30;;;23.20;99.90;;;;;;4951197;29;20932;-75
2023/08/20 05:42:30;;;;;;;9.37;8.13;;;23.30;99.90;;;;;;4951291;29;20190;-75
2023/08/20 05:45:02;;;;;;;10.00;8.87;;;23.40;99.90;;;;;;4951457;29;21216;-75
2023/08/20 05:47:28;;;;;;;8.63;7.83;;;23.40;99.90;;;;;;4950222;29;20718;-75
2023/08/20 05:49:55;;;;;;;9.10;8.13;;;23.60;99.90;;;;;;4944139;29;20595;-74
2023/08/20 05:52:21;;;;;;;9.33;7.87;;;23.70;99.90;;;;;;4952436;28;21118;-74
2023/08/20 05:54:47;;;;;;;14.20;8.40;;;23.90;99.90;;;;;;4935262;29;20180;-74
2023/08/20 05:57:13;;;;;;;8.57;7.67;;;24.00;99.90;;;;;;4935446;29;20657;-74
2023/08/20 05:59:40;;;;;;;9.67;8.77;;;24.20;99.90;;;;;;4940476;29;20740;-74
2023/08/20 06:02:06;;;;;;;9.20;8.40;;;24.30;99.90;;;;;;4946832;29;21026;-75
2023/08/20 06:04:31;;;;;;;12.63;8.13;;;24.50;99.90;;;;;;4951289;29;20287;-75
2023/08/20 06:06:57;;;;;;;10.67;8.53;;;24.60;99.90;;;;;;4952232;28;20203;-74
2023/08/20 06:09:23;;;;;;;8.77;7.97;;;24.80;99.90;;;;;;4950890;29;20633;-74
2023/08/20 06:11:49;;;;;;;10.73;7.63;;;25.00;99.90;;;;;;4925334;29;20217;-75
2023/08/20 06:14:15;;;;;;;8.90;8.00;;;25.20;99.90;;;;;;4934904;29;20594;-75
2023/08/20 06:16:40;;;;;;;8.60;7.70;;;25.30;99.90;;;;;;4935667;29;20636;-75
2023/08/20 06:19:06;;;;;;;8.90;8.20;;;25.50;99.90;;;;;;4934281;29;20181;-75
2023/08/20 06:21:32;;;;;;;10.37;9.47;;;25.70;99.90;;;;;;4926852;29;20212;-75
2023/08/20 06:23:57;;;;;;;7.10;6.40;;;25.90;99.90;;;;;;4917664;29;20672;-75
2023/08/20 06:26:23;;;;;;;8.47;7.57;;;26.00;99.90;;;;;;4931897;29;20197;-75
2023/08/20 06:28:49;;;;;;;8.40;7.30;;;26.10;99.90;;;;;;4935187;29;20169;-76
2023/08/20 06:31:15;;;;;;;7.80;6.97;;;26.40;99.90;;;;;;4929389;29;20607;-76
2023/08/20 06:33:40;;;;;;;8.10;6.97;;;26.80;99.90;;;;;;4925372;29;20179;-76
2023/08/20 06:36:06;;;;;;;7.53;6.83;;;27.40;99.90;;;;;;4929573;29;20211;-76
2023/08/20 06:38:32;;;;;;;6.67;5.83;;;28.10;99.90;;;;;;4937237;29;20264;-76
2023/08/20 06:40:57;;;;;;;7.00;6.30;;;28.90;99.90;;;;;;4932509;29;20245;-76
2023/08/20 06:43:23;;;;;;;8.20;5.30;;;29.60;99.90;;;;;;4915972;29;20188;-75
2023/08/20 06:45:49;;;;;;;5.70;5.20;;;30.30;99.90;;;;;;4934998;29;20603;-76
2023/08/20 06:48:16;;;;;;;6.17;5.57;;;31.10;99.90;;;;;;4919207;29;20186;-76
2023/08/20 06:50:42;;;;;;;6.20;5.13;;;31.80;99.90;;;;;;4935286;29;20183;-76
2023/08/20 06:53:08;;;;;;;6.93;6.17;;;32.40;99.90;;;;;;4934792;29;20589;-75
2023/08/20 06:55:34;;;;;;;6.87;5.57;;;32.90;99.90;;;;;;4919295;29;21166;-76
2023/08/20 06:58:00;;;;;;;7.03;5.50;;;33.50;99.90;;;;;;4923720;29;20198;-75
2023/08/20 07:00:26;;;;;;;5.47;4.90;;;34.10;99.90;;;;;;4924848;29;20589;-75
2023/08/20 07:02:52;;;;;;;6.13;4.90;;;34.60;99.90;;;;;;4935064;29;20596;-75
2023/08/20 07:05:18;;;;;;;5.53;5.03;;;35.10;99.90;;;;;;4936068;29;20204;-74
2023/08/20 07:07:45;;;;;;;7.30;5.17;;;35.50;99.90;;;;;;4934202;29;20688;-75
2023/08/20 07:10:10;;;;;;;6.33;4.80;;;35.70;99.90;;;;;;4934285;29;20818;-75
2023/08/20 07:12:36;;;;;;;5.07;4.57;;;36.10;99.90;;;;;;4921609;29;20644;-75
2023/08/20 07:15:03;;;;;;;5.67;5.10;;;36.30;99.90;;;;;;4921034;29;20181;-75
2023/08/20 07:17:29;;;;;;;5.63;4.93;;;36.70;99.90;;;;;;4900296;29;20568;-75
2023/08/20 07:19:55;;;;;;;6.33;5.53;;;37.20;99.90;;;;;;4903003;29;20581;-74
2023/08/20 07:22:20;;;;;;;5.57;4.97;;;37.50;99.90;;;;;;4935648;29;20745;-75
2023/08/20 07:24:46;;;;;;;5.77;5.17;;;37.70;99.90;;;;;;4934331;29;20208;-75
2023/08/20 07:27:12;;;;;;;6.73;5.40;;;38.10;99.90;;;;;;4924677;29;20201;-75
2023/08/20 07:29:38;;;;;;;6.13;5.40;;;38.20;99.90;;;;;;4933848;29;20184;-75
2023/08/20 07:32:04;;;;;;;6.20;4.60;;;38.30;99.90;;;;;;4934295;29;20624;-75
2023/08/20 07:34:34;;;;;;;5.33;4.83;;;38.60;99.90;;;;;;4925640;29;20629;-75
2023/08/20 07:37:00;;;;;;;5.80;5.30;;;38.90;99.90;;;;;;4899032;29;20573;-75
2023/08/20 07:39:26;;;;;;;4.80;4.40;;;39.30;99.90;;;;;;4922068;29;20595;-75
2023/08/20 07:41:52;;;;;;;4.23;3.83;;;39.70;99.90;;;;;;4922276;29;20589;-74
2023/08/20 07:44:18;;;;;;;6.47;5.50;;;40.10;99.90;;;;;;4922807;29;20228;-74
2023/08/20 07:46:43;;;;;;;5.87;4.90;;;40.40;99.90;;;;;;4933912;29;20698;-74
2023/08/20 07:49:09;;;;;;;5.63;4.97;;;40.60;99.90;;;;;;4933786;29;20272;-74
2023/08/20 07:51:34;;;;;;;6.50;4.17;;;41.00;99.70;;;;;;4933769;29;20579;-74
2023/08/20 07:54:00;;;;;;;6.20;4.53;;;41.30;98.70;;;;;;4935512;29;20264;-74
2023/08/20 07:56:26;;;;;;;9.87;4.40;;;41.60;97.10;;;;;;4926324;29;20264;-74
2023/08/20 07:58:52;;;;;;;8.80;5.00;;;41.80;96.30;;;;;;4926623;29;20592;-74
2023/08/20 08:01:18;;;;;;;5.43;5.03;;;42.10;95.10;;;;;;4933582;29;20216;-74
2023/08/20 08:03:43;;;;;;;4.73;4.07;;;42.30;94.20;;;;;;4932976;29;20200;-74
2023/08/20 08:06:09;;;;;;;5.57;3.70;;;42.50;93.10;;;;;;4928957;29;20203;-74
2023/08/20 08:08:35;;;;;;;5.57;5.07;;;42.80;92.20;;;;;;4917486;29;20236;-74
2023/08/20 08:11:01;;;;;;;6.90;5.10;;;43.00;91.10;;;;;;4934905;29;20177;-74
2023/08/20 08:13:26;;;;;;;4.87;4.37;;;43.30;90.20;;;;;;4933651;29;20169;-75
2023/08/20 08:15:52;;;;;;;6.67;5.13;;;43.50;88.00;;;;;;4917714;29;20187;-74
2023/08/20 08:18:20;;;;;;;5.50;5.00;;;43.70;85.40;;;;;;4934460;29;20177;-74
2023/08/20 08:20:46;;;;;;;5.23;4.63;;;43.80;82.70;;;;;;4933104;29;20533;-74
2023/08/20 08:23:12;;;;;;;4.87;4.47;;;43.80;82.00;;;;;;4934599;29;20588;-74
2023/08/20 08:25:38;;;;;;;7.60;5.30;;;44.00;80.90;;;;;;4933314;29;20216;-74
2023/08/20 08:28:05;;;;;;;6.63;5.10;;;44.20;79.10;;;;;;4934351;29;20201;-75
2023/08/20 08:30:30;;;;;;;7.30;5.73;;;44.30;77.40;;;;;;4933413;29;20585;-74
2023/08/20 08:32:56;;;;;;;6.20;5.60;;;44.50;75.90;;;;;;4931056;29;20589;-74
2023/08/20 08:35:22;;;;;;;5.07;4.27;;;44.50;74.00;;;;;;4917742;29;20186;-74
2023/08/20 08:37:47;;;;;;;4.87;4.47;;;44.60;72.20;;;;;;4916865;29;20224;-73
2023/08/20 08:40:13;;;;;;;5.30;4.90;;;44.60;71.30;;;;;;4932758;29;20240;-73
2023/08/20 08:42:40;;;;;;;4.37;4.03;;;44.70;70.00;;;;;;4917160;29;20386;-73
2023/08/20 08:45:07;;;;;;;4.50;3.50;;;44.70;68.80;;;;;;4933038;29;20189;-74
2023/08/20 08:47:33;;;;;;;4.97;3.20;;;44.70;67.50;;;;;;4932776;29;20628;-74
2023/08/20 08:49:59;;;;;;;4.90;3.87;;;44.70;66.70;;;;;;4928936;29;20598;-74
2023/08/20 08:52:25;;;;;;;3.90;2.97;;;44.80;66.00;;;;;;4913894;29;20657;-74
2023/08/20 08:54:52;;;;;;;5.43;3.80;;;44.90;65.60;;;;;;4931953;29;20214;-74
2023/08/20 08:57:18;;;;;;;4.67;3.43;;;45.00;64.50;;;;;;4933813;29;20964;-74
2023/08/20 08:59:44;;;;;;;4.43;3.80;;;45.10;63.30;;;;;;4932635;29;20596;-74
2023/08/20 09:02:12;;;;;;;5.63;4.90;;;45.20;62.70;;;;;;4932465;29;20180;-74
2023/08/20 09:04:40;;;;;;;6.03;3.90;;;45.20;60.00;;;;;;4933330;29;20207;-74
2023/08/20 09:07:10;;;;;;;4.00;3.60;;;45.20;59.70;;;;;;4915629;29;20629;-74
2023/08/20 09:09:38;;;;;;;3.93;3.53;;;45.20;59.70;;;;;;4929716;29;20593;-74
2023/08/20 09:12:16;;;;;;;3.70;3.07;;;45.20;59.60;;;;;;4932713;29;21245;-76
2023/08/20 09:14:52;;;;;;;4.50;4.10;;;45.30;58.50;;;;;;4932590;29;20640;-73
2023/08/20 09:17:21;;;;;;;4.50;4.10;;;45.40;58.70;;;;;;4932505;29;20644;-74
2023/08/20 09:19:47;;;;;;;3.90;3.20;;;45.40;58.20;;;;;;4932041;29;20589;-74
2023/08/20 09:22:14;;;;;;;4.10;3.30;;;45.60;57.90;;;;;;4932518;29;20648;-74
2023/08/20 09:24:43;;;;;;;4.33;3.57;;;45.80;57.30;;;;;;4916397;29;20189;-74
2023/08/20 09:27:09;;;;;;;5.50;3.27;;;45.90;56.80;;;;;;4933437;29;20628;-74
2023/08/20 09:29:45;;;;;;;6.43;2.97;;;46.10;56.70;;;;;;4931945;29;20604;-74
2023/08/20 09:32:17;;;;;;;3.70;3.27;;;46.40;55.80;;;;;;4919675;29;20185;-74
2023/08/20 09:34:43;;;;;;;5.83;2.97;;;46.60;55.10;;;;;;4923341;29;20691;-74
2023/08/20 09:37:10;;;;;;;3.90;3.17;;;46.70;55.00;;;;;;4939002;29;21125;-74
2023/08/20 09:39:36;;;;;;;4.03;3.30;;;46.80;54.50;;;;;;4940037;29;20247;-74
2023/08/20 09:42:03;;;;;;;3.57;3.00;;;47.00;54.20;;;;;;4951557;29;20643;-74
2023/08/20 09:44:37;;;;;;;3.90;2.60;;;47.20;54.10;;;;;;4952501;28;20595;-74
2023/08/20 09:47:05;;;;;;;3.70;3.20;;;47.30;53.00;;;;;;4952619;29;20621;-75
2023/08/20 09:49:36;;;;;;;3.60;3.30;;;47.20;52.10;;;;;;4953474;28;20974;-75
2023/08/20 09:52:04;;;;;;;5.77;3.10;;;47.00;51.10;;;;;;4940713;29;20892;-75
2023/08/20 09:54:54;;;;;;;3.40;2.93;;;46.80;50.90;;;;;;4955122;29;21235;-75
2023/08/20 09:57:37;;;;;;;4.43;3.30;;;46.60;50.40;;;;;;4949174;29;20630;-74
2023/08/20 10:00:10;;;;;;;11.60;3.47;;;46.30;50.40;;;;;;4954687;29;20591;-74
2023/08/20 10:02:43;;;;;;;5.10;4.70;;;46.10;50.30;;;;;;4948105;28;20580;-74
2023/08/20 10:05:10;;;;;;;3.57;3.27;;;46.00;49.90;;;;;;4938916;29;20606;-75
2023/08/20 10:07:36;;;;;;;3.20;2.90;;;45.80;50.00;;;;;;4956102;28;20619;-75
2023/08/20 10:10:05;;;;;;;3.70;2.67;;;45.70;50.00;;;;;;4955717;28;20921;-75
2023/08/20 10:12:31;;;;;;;4.17;3.20;;;45.60;50.70;;;;;;4954689;29;20658;-74
2023/08/20 10:14:59;;;;;;;3.20;2.90;;;45.70;50.70;;;;;;4954494;29;20647;-74
2023/08/20 10:17:25;;;;;;;3.47;3.10;;;45.40;50.50;;;;;;4955956;28;20622;-75
2023/08/20 10:19:53;;;;;;;4.00;3.60;;;44.90;49.20;;;;;;4957442;28;21413;-74
2023/08/20 10:22:20;;;;;;;4.00;3.70;;;44.20;48.70;;;;;;4955711;28;20595;-74
2023/08/20 10:24:51;;;;;;;4.07;3.70;;;43.40;48.60;;;;;;4946897;28;20928;-75
2023/08/20 10:27:27;;;;;;;5.00;4.13;;;42.50;48.90;;;;;;4942619;29;20714;-74
2023/08/20 10:29:55;;;;;;;4.50;4.10;;;41.70;49.50;;;;;;4953822;29;20594;-74
2023/08/20 10:32:47;;;;;;;4.83;4.20;;;40.90;50.30;;;;;;4954019;29;20622;-75
2023/08/20 10:35:17;;;;;;;4.87;4.47;;;40.50;51.80;;;;;;4954192;29;20646;-74
2023/08/20 10:38:04;;;;;;;5.20;4.80;;;40.40;52.40;;;;;;4939294;29;20639;-74
2023/08/20 10:40:56;;;;;;;5.83;5.00;;;40.50;53.00;;;;;;4946255;29;21161;-74
2023/08/20 10:43:32;;;;;;;4.63;4.20;;;40.60;52.90;;;;;;4945212;29;21162;-74
2023/08/20 10:46:15;;;;;;;4.80;4.20;;;40.50;52.80;;;;;;4943890;29;20942;-75
2023/08/20 10:48:42;;;;;;;5.50;4.80;;;40.50;52.90;;;;;;4943889;29;20951;-74
2023/08/20 10:51:37;;;;;;;5.67;5.17;;;40.40;52.90;;;;;;4936032;29;20596;-74
2023/08/20 10:54:08;;;;;;;5.23;4.73;;;40.40;52.80;;;;;;4951057;29;20660;-74
2023/08/20 10:56:45;;;;;;;6.03;5.30;;;40.30;52.90;;;;;;4955164;29;21231;-75
2023/08/20 10:59:21;;;;;;;5.10;4.70;;;40.30;53.80;;;;;;4938843;28;20587;-74
2023/08/20 11:01:48;;;;;;;7.50;4.50;;;40.50;53.80;;;;;;4945493;29;20594;-74
2023/08/20 11:04:19;;;;;;;4.77;4.37;;;40.60;53.80;;;;;;4953694;29;20679;-74
2023/08/20 11:06:46;;;;;;;4.80;4.40;;;40.80;53.20;;;;;;4953656;29;20655;-74
2023/08/20 11:09:12;;;;;;;4.30;3.90;;;40.90;53.00;;;;;;4946682;28;20582;-74
2023/08/20 11:11:40;;;;;;;4.67;4.27;;;40.80;52.20;;;;;;4939416;28;20675;-74
2023/08/20 11:14:15;;;;;;;3.73;3.27;;;40.60;52.10;;;;;;4950163;29;20659;-74
2023/08/20 11:16:43;;;;;;;3.93;3.63;;;40.40;51.80;;;;;;4950118;29;21244;-75
2023/08/20 11:19:09;;;;;;;6.10;5.37;;;40.10;52.40;;;;;;4950767;28;20596;-74
2023/08/20 11:21:35;;;;;;;5.07;3.80;;;40.00;52.90;;;;;;4949328;29;20588;-74
2023/08/20 11:24:02;;;;;;;4.40;4.00;;;39.90;53.10;;;;;;4946736;28;20643;-74
2023/08/20 11:26:27;;;;;;;4.43;3.43;;;40.00;53.40;;;;;;4952104;28;20620;-74
2023/08/20 11:28:53;;;;;;;4.33;3.93;;;40.00;53.60;;;;;;4930440;29;21216;-75
2023/08/20 11:31:19;;;;;;;4.47;3.60;;;40.10;53.40;;;;;;4954962;28;20195;-74
2023/08/20 11:33:47;;;;;;;4.77;4.10;;;40.20;53.40;;;;;;4952923;29;20589;-74
2023/08/20 11:36:16;;;;;;;3.83;3.50;;;40.40;53.30;;;;;;4946001;29;20643;-74
2023/08/20 11:38:42;;;;;;;3.93;3.03;;;40.40;53.10;;;;;;4953399;29;20603;-74
2023/08/20 11:41:08;;;;;;;3.93;3.60;;;40.40;53.00;;;;;;4946394;29;20904;-74
2023/08/20 11:43:34;;;;;;;3.80;2.87;;;40.60;52.90;;;;;;4953465;29;20180;-74
2023/08/20 11:46:00;;;;;;;4.13;3.37;;;40.60;52.90;;;;;;4942828;29;20187;-74
2023/08/20 11:48:26;;;;;;;3.43;3.13;;;40.60;52.90;;;;;;4947353;29;20661;-74
2023/08/20 11:50:52;;;;;;;3.30;3.00;;;40.60;52.60;;;;;;4951874;29;20615;-74
2023/08/20 11:53:24;;;;;;;3.40;3.10;;;40.60;52.70;;;;;;4953139;29;20764;-74
2023/08/20 11:55:50;;;;;;;3.50;3.20;;;40.50;51.80;;;;;;4952952;28;20215;-74
2023/08/20 11:58:19;;;;;;;4.30;3.23;;;40.30;51.30;;;;;;4945680;29;20596;-74
2023/08/20 12:00:50;;;;;;;3.43;3.10;;;39.90;51.40;;;;;;4952463;29;20195;-74
2023/08/20 12:03:19;;;;;;;3.23;2.43;;;39.70;51.90;;;;;;4954027;28;20643;-74
2023/08/20 12:05:44;;;;;;;3.80;3.23;;;39.40;52.10;;;;;;4952544;29;20599;-74
2023/08/20 12:08:16;;;;;;;3.63;3.33;;;39.20;52.50;;;;;;4952549;29;21112;-73
2023/08/20 12:10:42;;;;;;;4.00;3.07;;;38.90;51.90;;;;;;4944328;28;20184;-74
2023/08/20 12:13:08;;;;;;;3.00;2.47;;;38.50;51.80;;;;;;4952109;29;20708;-74
2023/08/20 12:15:34;;;;;;;3.63;3.23;;;38.20;52.00;;;;;;4953894;28;20750;-74
2023/08/20 12:18:05;;;;;;;5.10;3.10;;;38.00;52.60;;;;;;4953582;29;20243;-74
2023/08/20 12:20:33;;;;;;;3.77;2.93;;;37.80;53.00;;;;;;4947243;29;20547;-74
2023/08/20 12:23:01;;;;;;;3.90;3.00;;;37.70;53.00;;;;;;4950779;29;20614;-74
2023/08/20 12:25:30;;;;;;;3.43;3.13;;;37.60;53.50;;;;;;4936404;29;20622;-73
2023/08/20 12:27:56;;;;;;;3.10;2.73;;;37.50;53.40;;;;;;4943041;28;20648;-74
2023/08/20 12:30:22;;;;;;;4.30;2.77;;;37.40;53.60;;;;;;4953118;29;20580;-74
2023/08/20 12:36:36;;;;;;;3.40;2.70;;;37.30;53.80;;;;;;4953401;29;20251;-74
2023/08/20 12:39:04;;;;;;;3.17;2.83;;;37.20;53.80;;;;;;4951890;29;20706;-73
2023/08/20 12:41:30;;;;;;;2.87;2.57;;;37.10;53.70;;;;;;4953371;29;20616;-74
2023/08/20 12:43:56;;;;;;;2.47;2.13;;;37.00;53.90;;;;;;4952086;29;20615;-74
2023/08/20 12:46:22;;;;;;;2.70;2.40;;;36.90;54.20;;;;;;4939755;29;20643;-74
2023/08/20 12:48:47;;;;;;;3.47;2.23;;;36.80;54.30;;;;;;4944342;29;20184;-74
2023/08/20 12:51:15;;;;;;;2.97;2.70;;;36.80;55.10;;;;;;4952391;29;20258;-73